Time;durP1;ratioP1;P1;durP2;ratioP2;P2;SDS_P1;SDS_P2;PMS_P1;PMS_P2;Temp;Humidity;BMP_temperature;BMP_pressure;BME280_temperature;BME280_humidity;BME280_pressure;Samples;Min_cycle;Max_cycle;Signal;HPM_P1;HPM_P2
2021/01/03 00:02:07;;;;;;;5.57;2.63;;;-0.30;99.90;;;;;;4994161;28;20245;-78
2021/01/03 00:04:34;;;;;;;5.75;2.92;;;-0.20;99.90;;;;;;4995156;28;20231;-78
2021/01/03 00:07:01;;;;;;;3.97;2.58;;;-0.20;99.90;;;;;;4995707;28;20211;-78
2021/01/03 00:09:27;;;;;;;5.10;2.70;;;-0.20;99.90;;;;;;4993164;28;20305;-78
2021/01/03 00:11:53;;;;;;;5.07;2.58;;;-0.20;99.90;;;;;;4992171;28;20223;-79
2021/01/03 00:14:20;;;;;;;4.80;2.47;;;-0.20;99.90;;;;;;4991914;28;20850;-78
2021/01/03 00:16:47;;;;;;;4.88;2.72;;;-0.10;99.90;;;;;;4999187;28;20321;-78
2021/01/03 00:19:13;;;;;;;4.13;2.30;;;0.00;99.90;;;;;;4991816;28;20234;-78
2021/01/03 00:21:39;;;;;;;5.28;2.63;;;0.00;99.90;;;;;;4989966;28;20201;-78
2021/01/03 00:24:06;;;;;;;4.88;2.83;;;0.00;99.90;;;;;;4992126;28;21011;-78
2021/01/03 00:26:32;;;;;;;5.22;2.70;;;0.10;99.90;;;;;;4996645;28;20203;-79
2021/01/03 00:28:58;;;;;;;5.57;3.13;;;0.10;99.90;;;;;;4996745;28;20195;-80
2021/01/03 00:31:25;;;;;;;5.13;2.80;;;0.10;99.90;;;;;;4997088;28;20201;-78
2021/01/03 00:33:53;;;;;;;4.97;2.53;;;0.10;99.90;;;;;;4994808;28;20249;-78
2021/01/03 00:36:20;;;;;;;3.20;2.30;;;0.10;99.90;;;;;;5000245;28;20268;-79
2021/01/03 00:38:46;;;;;;;4.97;3.03;;;0.10;99.90;;;;;;4993312;28;20660;-78
2021/01/03 00:41:11;;;;;;;5.57;2.92;;;0.20;99.90;;;;;;4996223;28;20195;-78
2021/01/03 00:43:37;;;;;;;3.30;2.17;;;0.20;99.90;;;;;;4998440;28;20237;-78
2021/01/03 00:46:04;;;;;;;4.07;2.38;;;0.20;99.90;;;;;;4998524;28;20890;-77
2021/01/03 00:48:29;;;;;;;5.05;2.42;;;0.20;99.90;;;;;;4998111;28;20221;-78
2021/01/03 00:50:55;;;;;;;4.07;2.30;;;0.20;99.90;;;;;;4996492;28;20203;-78
2021/01/03 00:53:21;;;;;;;3.42;2.45;;;0.20;99.90;;;;;;4994688;28;20713;-79
2021/01/03 00:55:47;;;;;;;4.47;2.28;;;0.20;99.90;;;;;;4996978;28;20347;-78
2021/01/03 00:58:12;;;;;;;4.70;2.55;;;0.20;99.90;;;;;;4995945;28;20720;-79
2021/01/03 01:00:38;;;;;;;3.63;2.42;;;0.20;99.90;;;;;;4997465;28;20207;-81
2021/01/03 01:03:06;;;;;;;4.57;2.65;;;0.30;99.90;;;;;;4997123;28;20191;-78
2021/01/03 01:05:31;;;;;;;3.65;2.30;;;0.20;99.90;;;;;;4994227;28;20314;-79
2021/01/03 01:07:57;;;;;;;4.57;2.47;;;0.20;99.90;;;;;;4998922;28;20902;-80
2021/01/03 01:10:27;;;;;;;5.03;2.60;;;0.20;99.90;;;;;;4994610;28;20207;-79
2021/01/03 01:12:55;;;;;;;7.55;2.58;;;0.30;99.90;;;;;;4992407;28;20199;-81
2021/01/03 01:15:22;;;;;;;3.85;2.20;;;0.20;99.90;;;;;;4993314;28;21008;-80
2021/01/03 01:17:49;;;;;;;3.97;2.40;;;0.20;99.90;;;;;;4995532;28;20211;-78
2021/01/03 01:20:24;;;;;;;3.45;2.30;;;0.30;99.90;;;;;;4995219;28;20664;-80
2021/01/03 01:22:50;;;;;;;5.15;2.75;;;0.20;99.90;;;;;;4991809;28;21038;-79
2021/01/03 01:25:19;;;;;;;3.70;2.45;;;0.20;99.90;;;;;;4992544;28;20199;-79
2021/01/03 01:27:45;;;;;;;4.18;2.60;;;0.20;99.90;;;;;;4994406;28;20199;-79
2021/01/03 01:30:12;;;;;;;5.13;2.50;;;0.20;99.90;;;;;;4994827;28;20214;-78
2021/01/03 01:32:40;;;;;;;4.38;2.50;;;0.20;99.90;;;;;;4992054;28;20200;-80
2021/01/03 01:35:09;;;;;;;4.78;2.53;;;0.30;99.90;;;;;;4992643;28;20264;-78
2021/01/03 01:37:35;;;;;;;5.95;2.47;;;0.20;99.90;;;;;;4991201;28;20266;-79
2021/01/03 01:40:01;;;;;;;3.75;2.60;;;0.20;99.90;;;;;;4995042;28;20704;-78
2021/01/03 01:42:26;;;;;;;3.50;2.50;;;0.20;99.90;;;;;;4997953;28;20206;-80
2021/01/03 01:44:52;;;;;;;3.90;2.50;;;0.20;99.90;;;;;;4991874;28;20208;-80
2021/01/03 01:47:30;;;;;;;4.68;2.40;;;0.20;99.90;;;;;;4992862;28;20210;-79
2021/01/03 01:50:00;;;;;;;4.35;2.38;;;0.20;99.90;;;;;;4991690;28;20272;-79
2021/01/03 01:52:36;;;;;;;4.25;2.40;;;0.20;99.90;;;;;;4997407;28;20642;-79
2021/01/03 01:55:07;;;;;;;3.95;2.15;;;0.20;99.90;;;;;;4989650;28;20293;-80
2021/01/03 01:57:42;;;;;;;4.63;2.50;;;0.20;99.90;;;;;;4992131;28;20242;-80
2021/01/03 02:00:28;;;;;;;3.88;2.42;;;0.20;99.90;;;;;;4989579;28;20241;-79
2021/01/03 02:05:44;;;;;;;4.43;2.47;;;0.20;99.90;;;;;;4971511;23;20304;-70
2021/01/03 02:08:35;;;;;;;4.20;2.35;;;0.30;99.90;;;;;;4979491;28;20196;-70
2021/01/03 02:11:04;;;;;;;2.47;2.03;;;0.30;99.90;;;;;;4976136;28;20223;-68
2021/01/03 02:13:37;;;;;;;3.08;2.10;;;0.30;99.90;;;;;;4983701;28;20366;-70
2021/01/03 02:16:11;;;;;;;3.78;1.90;;;0.30;99.90;;;;;;4974075;28;21986;-70
2021/01/03 02:18:37;;;;;;;3.30;2.25;;;0.30;99.90;;;;;;4980885;28;20403;-69
2021/01/03 02:21:17;;;;;;;4.05;2.10;;;0.30;99.90;;;;;;4979675;28;20334;-70
2021/01/03 02:23:48;;;;;;;2.72;2.00;;;0.20;99.90;;;;;;4983244;28;20195;-69
2021/01/03 02:26:16;;;;;;;2.25;1.90;;;0.20;99.90;;;;;;4984839;28;20630;-69
2021/01/03 02:28:44;;;;;;;3.22;2.22;;;0.20;99.90;;;;;;4977510;28;20208;-70
2021/01/03 02:31:12;;;;;;;2.45;1.77;;;0.10;99.90;;;;;;4973598;28;20203;-69
2021/01/03 02:33:42;;;;;;;3.42;2.35;;;0.00;99.90;;;;;;4971636;28;20654;-69
2021/01/03 02:36:25;;;;;;;3.10;1.90;;;0.00;99.90;;;;;;4982054;28;20215;-69
2021/01/03 02:39:26;;;;;;;3.30;1.77;;;-0.10;99.90;;;;;;4982468;28;20258;-70
2021/01/03 02:41:56;;;;;;;4.75;1.92;;;-0.10;99.90;;;;;;4971816;28;20292;-69
2021/01/03 02:44:22;;;;;;;2.17;1.70;;;-0.10;99.90;;;;;;4978797;28;20191;-69
2021/01/03 02:46:49;;;;;;;2.78;1.83;;;-0.10;99.90;;;;;;4976865;28;20536;-69
2021/01/03 02:49:15;;;;;;;2.75;1.90;;;-0.10;99.90;;;;;;4975529;28;20323;-69
2021/01/03 02:51:41;;;;;;;2.95;1.77;;;-0.10;99.90;;;;;;4975401;28;20283;-70
2021/01/03 02:54:08;;;;;;;2.35;1.90;;;-0.20;99.90;;;;;;4975453;28;20215;-70
2021/01/03 02:56:34;;;;;;;3.22;1.80;;;-0.30;99.90;;;;;;4971755;28;20249;-69
2021/01/03 02:58:59;;;;;;;2.00;1.60;;;-0.30;99.90;;;;;;4974368;28;20192;-70
2021/01/03 03:01:25;;;;;;;3.13;1.65;;;-0.40;99.90;;;;;;4977593;28;21014;-70
2021/01/03 03:03:51;;;;;;;2.78;1.73;;;-0.40;99.90;;;;;;4974840;28;20228;-69
2021/01/03 03:06:17;;;;;;;2.60;1.40;;;-0.50;99.90;;;;;;4979368;28;20203;-70
2021/01/03 03:08:42;;;;;;;2.15;1.60;;;-0.50;99.90;;;;;;4974749;28;21083;-71
2021/01/03 03:11:08;;;;;;;2.22;1.77;;;-0.50;99.90;;;;;;4977251;28;20206;-70
2021/01/03 03:13:34;;;;;;;3.53;1.80;;;-0.50;99.90;;;;;;4978718;28;20223;-70
2021/01/03 03:16:00;;;;;;;5.25;1.90;;;-0.60;99.90;;;;;;4974479;28;20224;-70
2021/01/03 03:18:25;;;;;;;1.92;1.70;;;-0.60;99.90;;;;;;4976353;28;20273;-70
2021/01/03 03:20:51;;;;;;;2.47;1.77;;;-0.60;99.90;;;;;;4974736;28;20282;-70
2021/01/03 03:23:17;;;;;;;3.88;1.73;;;-0.70;99.90;;;;;;4977496;28;20310;-70
2021/01/03 03:25:42;;;;;;;1.90;1.60;;;-0.80;99.90;;;;;;4972591;28;20207;-70
2021/01/03 03:28:09;;;;;;;2.03;1.70;;;-0.90;99.90;;;;;;4969661;28;20206;-70
2021/01/03 03:30:35;;;;;;;3.08;1.90;;;-0.90;99.90;;;;;;4976392;28;20280;-70
2021/01/03 03:33:00;;;;;;;2.45;1.90;;;-0.90;99.90;;;;;;4971582;28;20649;-70
2021/01/03 03:35:29;;;;;;;2.92;1.70;;;-1.00;99.90;;;;;;4975122;28;20248;-70
2021/01/03 03:37:55;;;;;;;3.90;2.10;;;-1.00;99.90;;;;;;4969204;28;20624;-70
2021/01/03 03:40:22;;;;;;;2.38;1.70;;;-1.00;99.90;;;;;;4975391;28;20224;-69
2021/01/03 03:42:47;;;;;;;2.20;1.75;;;-1.00;99.90;;;;;;4968857;28;20588;-70
2021/01/03 03:45:15;;;;;;;2.33;1.60;;;-0.90;99.90;;;;;;4971003;28;20199;-70
2021/01/03 03:47:40;;;;;;;2.28;1.70;;;-0.80;99.90;;;;;;4975731;28;20226;-70
2021/01/03 03:50:10;;;;;;;2.03;1.70;;;-0.90;99.90;;;;;;4968307;28;20243;-70
2021/01/03 03:52:36;;;;;;;2.33;1.90;;;-0.90;99.90;;;;;;4968613;28;20208;-70
2021/01/03 03:55:02;;;;;;;2.22;1.70;;;-0.90;99.90;;;;;;4967279;28;20206;-70
2021/01/03 03:57:28;;;;;;;2.90;1.70;;;-0.90;99.90;;;;;;4970258;28;20223;-70
2021/01/03 03:59:53;;;;;;;2.20;1.70;;;-0.80;99.90;;;;;;4970163;28;20211;-70
2021/01/03 04:02:19;;;;;;;2.25;1.75;;;-0.70;99.90;;;;;;4971687;28;20910;-69
2021/01/03 04:04:45;;;;;;;2.55;2.00;;;-0.70;99.90;;;;;;4974108;28;20241;-69
2021/01/03 04:07:11;;;;;;;2.38;1.70;;;-0.60;99.90;;;;;;4989112;28;20209;-70
2021/01/03 04:09:36;;;;;;;1.90;1.40;;;-0.60;99.90;;;;;;4972338;28;20239;-69
2021/01/03 04:12:02;;;;;;;3.08;1.70;;;-0.70;99.90;;;;;;4978873;28;20191;-70
2021/01/03 04:14:28;;;;;;;4.65;1.90;;;-0.80;99.90;;;;;;4980074;28;20222;-70
2021/01/03 04:16:59;;;;;;;2.35;1.70;;;-0.80;99.90;;;;;;4977890;28;20344;-70
2021/01/03 04:19:26;;;;;;;3.15;2.08;;;-0.90;99.90;;;;;;4976926;28;20661;-70
2021/01/03 04:21:57;;;;;;;2.10;1.50;;;-0.90;99.90;;;;;;4976552;28;20541;-70
2021/01/03 04:24:24;;;;;;;2.25;1.65;;;-1.00;99.90;;;;;;4977685;28;20310;-70
2021/01/03 04:27:01;;;;;;;2.22;1.70;;;-1.00;99.90;;;;;;4979824;28;20277;-69
2021/01/03 04:29:27;;;;;;;2.33;1.60;;;-1.10;99.90;;;;;;4975433;28;20553;-70
2021/01/03 04:31:54;;;;;;;1.65;1.50;;;-1.00;99.90;;;;;;4979114;28;20214;-70
2021/01/03 04:34:21;;;;;;;1.70;1.40;;;-1.00;99.90;;;;;;4976743;28;20737;-69
2021/01/03 04:36:54;;;;;;;3.92;1.38;;;-1.00;99.90;;;;;;4981178;28;20226;-69
2021/01/03 04:39:21;;;;;;;2.67;1.70;;;-1.00;99.90;;;;;;4978814;28;20262;-69
2021/01/03 04:41:48;;;;;;;2.40;1.38;;;-1.00;99.90;;;;;;4976516;28;20284;-69
2021/01/03 04:44:26;;;;;;;1.92;1.50;;;-1.00;99.90;;;;;;4977505;28;20216;-69
2021/01/03 04:46:53;;;;;;;2.00;1.55;;;-1.00;99.90;;;;;;4976872;28;20788;-69
2021/01/03 04:49:38;;;;;;;2.50;1.70;;;-1.00;99.90;;;;;;4976462;28;20207;-69
2021/01/03 04:52:41;;;;;;;1.75;1.50;;;-1.10;99.90;;;;;;4978569;28;20242;-69
2021/01/03 04:55:19;;;;;;;1.92;1.40;;;-1.20;99.90;;;;;;4975007;28;20207;-69
2021/01/03 04:57:49;;;;;;;2.75;1.40;;;-1.20;99.90;;;;;;4975022;28;20202;-70
2021/01/03 05:00:17;;;;;;;1.75;1.48;;;-1.20;99.90;;;;;;4976179;28;20296;-69
2021/01/03 05:03:03;;;;;;;2.10;1.40;;;-1.20;99.90;;;;;;4974960;28;20202;-70
2021/01/03 05:05:40;;;;;;;2.33;1.60;;;-1.20;99.90;;;;;;4977538;28;20234;-69
2021/01/03 05:08:32;;;;;;;1.70;1.50;;;-1.20;99.90;;;;;;4975186;28;20682;-69
2021/01/03 05:11:11;;;;;;;1.80;1.52;;;-1.20;99.90;;;;;;4977576;28;20269;-69
2021/01/03 05:13:37;;;;;;;1.38;1.23;;;-1.30;99.90;;;;;;4974291;28;20572;-69
2021/01/03 05:16:04;;;;;;;1.80;1.50;;;-1.30;99.90;;;;;;4971222;28;20236;-70
2021/01/03 05:18:30;;;;;;;1.50;1.40;;;-1.40;99.90;;;;;;4973637;28;20211;-69
2021/01/03 05:20:57;;;;;;;1.48;1.20;;;-1.50;99.90;;;;;;4977378;28;20199;-69
2021/01/03 05:23:25;;;;;;;1.90;1.35;;;-1.50;99.90;;;;;;4976740;28;20557;-69
2021/01/03 05:25:53;;;;;;;2.05;1.50;;;-1.60;99.90;;;;;;4974787;28;20684;-69
2021/01/03 05:28:21;;;;;;;1.80;1.40;;;-1.60;99.90;;;;;;4975995;28;20200;-69
2021/01/03 05:30:47;;;;;;;1.73;1.30;;;-1.70;99.90;;;;;;4974822;28;20208;-69
2021/01/03 05:33:22;;;;;;;2.90;1.33;;;-1.70;99.90;;;;;;4975574;28;20753;-69
2021/01/03 05:35:48;;;;;;;1.42;1.33;;;-1.70;99.90;;;;;;4972892;28;20618;-70
2021/01/03 05:38:36;;;;;;;1.58;1.40;;;-1.80;99.90;;;;;;4977002;28;20212;-70
2021/01/03 05:41:18;;;;;;;1.40;1.30;;;-1.80;99.90;;;;;;4974946;28;20199;-70
2021/01/03 05:43:54;;;;;;;1.52;1.23;;;-1.80;99.90;;;;;;4989320;28;20199;-70
2021/01/03 05:46:36;;;;;;;1.40;1.30;;;-1.90;99.90;;;;;;4975393;28;20199;-70
2021/01/03 05:49:08;;;;;;;1.50;1.40;;;-1.90;99.90;;;;;;4972590;28;20912;-70
2021/01/03 05:51:44;;;;;;;2.97;1.65;;;-2.00;99.90;;;;;;4971071;28;20212;-70
2021/01/03 05:54:15;;;;;;;1.80;1.40;;;-2.00;99.90;;;;;;4974923;28;20191;-69
2021/01/03 05:56:42;;;;;;;1.42;1.33;;;-2.10;99.90;;;;;;4975957;28;20235;-69
2021/01/03 05:59:14;;;;;;;2.72;1.45;;;-2.10;99.90;;;;;;4974952;28;20996;-69
2021/01/03 06:01:40;;;;;;;1.38;1.27;;;-2.10;99.90;;;;;;4974074;28;20196;-69
2021/01/03 06:04:21;;;;;;;1.75;1.33;;;-2.10;99.90;;;;;;4973665;28;20249;-70
2021/01/03 06:06:50;;;;;;;1.95;1.58;;;-2.20;99.90;;;;;;4974252;28;20565;-69
2021/01/03 06:09:31;;;;;;;2.00;1.30;;;-2.20;99.90;;;;;;4975013;28;20202;-69
2021/01/03 06:12:20;;;;;;;1.67;1.50;;;-2.20;99.90;;;;;;4978017;28;20233;-69
2021/01/03 06:14:50;;;;;;;1.50;1.40;;;-2.20;99.90;;;;;;4977001;28;20210;-69
2021/01/03 06:17:17;;;;;;;1.60;1.50;;;-2.30;99.90;;;;;;4974365;28;20220;-69
2021/01/03 06:19:52;;;;;;;1.58;1.40;;;-2.20;99.90;;;;;;4969423;28;20279;-69
2021/01/03 06:22:44;;;;;;;1.50;1.40;;;-2.30;99.90;;;;;;4973400;28;20611;-69
2021/01/03 06:25:27;;;;;;;1.55;1.30;;;-2.30;99.90;;;;;;4970993;28;20319;-69
2021/01/03 06:27:58;;;;;;;4.43;1.55;;;-2.30;99.90;;;;;;4976419;28;20207;-69
2021/01/03 06:30:24;;;;;;;1.48;1.38;;;-2.30;99.90;;;;;;4973187;28;20207;-69
2021/01/03 06:33:05;;;;;;;2.35;1.77;;;-2.30;99.90;;;;;;4975521;28;20203;-69
2021/01/03 06:35:41;;;;;;;2.15;1.58;;;-2.30;99.90;;;;;;4973943;28;20567;-69
2021/01/03 06:38:15;;;;;;;1.90;1.52;;;-2.40;99.90;;;;;;4974386;28;20203;-69
2021/01/03 06:40:51;;;;;;;1.50;1.27;;;-2.30;99.90;;;;;;4976246;28;20682;-69
2021/01/03 06:44:20;;;;;;;1.58;1.45;;;-2.30;99.90;;;;;;4974726;28;20254;-69
2021/01/03 06:47:04;;;;;;;2.03;1.50;;;-2.20;99.90;;;;;;4930862;28;20239;-69
2021/01/03 06:49:29;;;;;;;1.98;1.67;;;-2.30;99.90;;;;;;4930134;29;20260;-69
2021/01/03 06:52:06;;;;;;;1.70;1.60;;;-2.20;99.90;;;;;;4932639;28;20711;-69
2021/01/03 06:54:38;;;;;;;3.17;1.48;;;-2.10;99.90;;;;;;4914505;29;20233;-69
2021/01/03 06:57:29;;;;;;;1.77;1.40;;;-2.20;99.90;;;;;;4930845;28;20221;-69
2021/01/03 07:00:16;;;;;;;1.77;1.40;;;-2.20;99.90;;;;;;4928656;29;20200;-69
2021/01/03 07:02:46;;;;;;;1.70;1.50;;;-2.30;99.90;;;;;;4929416;28;20231;-69
2021/01/03 07:05:12;;;;;;;2.05;1.60;;;-2.30;99.90;;;;;;4930521;29;20377;-69
2021/01/03 07:07:43;;;;;;;1.77;1.50;;;-2.30;99.90;;;;;;4930091;28;20370;-69
2021/01/03 07:10:17;;;;;;;1.92;1.40;;;-2.40;99.90;;;;;;4930896;28;20205;-69
2021/01/03 07:12:49;;;;;;;2.05;1.55;;;-2.30;99.90;;;;;;4930624;28;21046;-69
2021/01/03 07:15:26;;;;;;;1.50;1.40;;;-2.30;99.90;;;;;;4930655;29;20212;-69
2021/01/03 07:17:55;;;;;;;2.70;1.60;;;-2.30;99.90;;;;;;4956341;28;20310;-69
2021/01/03 07:20:44;;;;;;;1.63;1.42;;;-2.40;99.90;;;;;;4971953;28;20214;-69
2021/01/03 07:23:27;;;;;;;2.03;1.45;;;-2.30;99.90;;;;;;4973493;28;20214;-69
2021/01/03 07:26:22;;;;;;;1.80;1.20;;;-2.30;99.90;;;;;;4974704;28;20748;-69
2021/01/03 07:29:05;;;;;;;1.52;1.40;;;-2.30;99.90;;;;;;4970307;28;20295;-68
2021/01/03 07:32:15;;;;;;;1.42;1.33;;;-2.40;99.90;;;;;;4973837;28;20219;-69
2021/01/03 07:34:40;;;;;;;1.30;1.20;;;-2.40;99.90;;;;;;4978499;28;20203;-69
2021/01/03 07:37:12;;;;;;;2.25;1.48;;;-2.40;99.90;;;;;;4974102;28;20207;-70
2021/01/03 07:40:04;;;;;;;1.67;1.42;;;-2.40;99.90;;;;;;4980080;28;20577;-69
2021/01/03 07:42:36;;;;;;;1.58;1.40;;;-2.40;99.90;;;;;;4976153;28;20283;-69
2021/01/03 07:45:14;;;;;;;2.28;1.45;;;-2.50;99.90;;;;;;4979157;28;21018;-69
2021/01/03 07:47:40;;;;;;;2.10;1.50;;;-2.50;99.90;;;;;;4978155;28;20199;-69
2021/01/03 07:50:37;;;;;;;2.10;1.40;;;-2.60;99.90;;;;;;4980156;28;20992;-69
2021/01/03 07:53:26;;;;;;;3.00;1.55;;;-2.60;99.90;;;;;;4978691;28;20215;-69
2021/01/03 07:55:53;;;;;;;1.48;1.38;;;-2.50;99.90;;;;;;4979771;28;20290;-69
2021/01/03 07:58:22;;;;;;;1.75;1.40;;;-2.60;99.90;;;;;;4978507;28;20685;-69
2021/01/03 08:00:57;;;;;;;1.90;1.48;;;-2.60;99.90;;;;;;4979398;28;20199;-69
2021/01/03 08:03:26;;;;;;;1.92;1.33;;;-2.60;99.90;;;;;;4978464;28;20210;-69
2021/01/03 08:05:52;;;;;;;3.95;2.55;;;-2.60;99.90;;;;;;4980266;28;20669;-69
2021/01/03 08:08:24;;;;;;;3.33;2.05;;;-2.60;99.90;;;;;;4970698;28;20212;-69
2021/01/03 08:11:03;;;;;;;2.75;1.30;;;-2.60;99.90;;;;;;4967779;28;20574;-69
2021/01/03 08:13:34;;;;;;;3.03;1.35;;;-2.60;99.90;;;;;;4967927;28;20204;-69
2021/01/03 08:16:00;;;;;;;1.75;1.27;;;-2.60;99.90;;;;;;4969547;28;20338;-69
2021/01/03 08:18:29;;;;;;;1.50;1.40;;;-2.50;99.90;;;;;;4967806;28;21528;-70
2021/01/03 08:21:18;;;;;;;6.20;1.58;;;-2.50;99.90;;;;;;4974330;28;20210;-69
2021/01/03 08:23:44;;;;;;;1.95;1.50;;;-2.50;99.90;;;;;;4970674;28;20898;-69
2021/01/03 08:26:17;;;;;;;1.50;1.40;;;-2.50;99.90;;;;;;4971620;28;20203;-69
2021/01/03 08:28:59;;;;;;;11.60;1.50;;;-2.50;99.90;;;;;;4965941;28;20550;-69
2021/01/03 08:31:27;;;;;;;1.30;1.17;;;-2.50;99.90;;;;;;4969593;28;20199;-70
2021/01/03 08:33:55;;;;;;;2.20;1.40;;;-2.60;99.90;;;;;;4973849;28;20709;-69
2021/01/03 08:36:32;;;;;;;1.25;1.15;;;-2.60;99.90;;;;;;4973169;28;20206;-70
2021/01/03 08:39:15;;;;;;;1.70;1.40;;;-2.50;99.90;;;;;;4969029;28;20227;-69
2021/01/03 08:41:48;;;;;;;1.50;1.40;;;-2.50;99.90;;;;;;4971856;28;20739;-70
2021/01/03 08:44:14;;;;;;;1.58;1.30;;;-2.50;99.90;;;;;;4972883;28;20211;-69
2021/01/03 08:46:40;;;;;;;3.50;1.20;;;-2.60;99.90;;;;;;4968480;28;20289;-69
2021/01/03 08:49:09;;;;;;;1.35;1.25;;;-2.60;99.90;;;;;;4974895;28;20435;-69
2021/01/03 08:51:36;;;;;;;1.42;1.30;;;-2.60;99.90;;;;;;4974645;28;20282;-69
2021/01/03 08:54:05;;;;;;;2.67;1.70;;;-2.60;99.90;;;;;;4974916;28;20192;-69
2021/01/03 08:56:37;;;;;;;1.88;1.35;;;-2.50;99.90;;;;;;4973665;28;20231;-69
2021/01/03 08:59:03;;;;;;;2.03;1.38;;;-2.60;99.90;;;;;;4972127;28;20279;-69
2021/01/03 09:01:33;;;;;;;1.58;1.48;;;-2.60;99.90;;;;;;4973599;28;20226;-69
2021/01/03 09:04:09;;;;;;;2.97;1.50;;;-2.60;99.90;;;;;;4975860;28;20243;-70
2021/01/03 09:06:36;;;;;;;2.03;1.63;;;-2.60;99.90;;;;;;4973263;28;20253;-70
2021/01/03 09:09:15;;;;;;;1.73;1.40;;;-2.70;99.90;;;;;;4971890;28;20201;-69
2021/01/03 09:12:01;;;;;;;2.97;1.73;;;-2.70;99.90;;;;;;4976868;28;20199;-69
2021/01/03 09:14:47;;;;;;;1.60;1.50;;;-2.70;99.90;;;;;;4975158;28;20201;-69
2021/01/03 09:17:21;;;;;;;1.98;1.50;;;-2.70;99.90;;;;;;4969664;28;20195;-69
2021/01/03 09:20:09;;;;;;;1.95;1.27;;;-2.70;99.90;;;;;;4973733;28;20192;-69
2021/01/03 09:22:38;;;;;;;1.85;1.50;;;-2.70;99.90;;;;;;4976724;28;20848;-69
2021/01/03 09:25:13;;;;;;;2.60;1.50;;;-2.70;99.90;;;;;;4969818;28;20200;-69
2021/01/03 09:27:40;;;;;;;1.60;1.50;;;-2.80;99.90;;;;;;4973960;28;20319;-69
2021/01/03 09:30:36;;;;;;;1.52;1.35;;;-2.80;99.90;;;;;;4973410;28;20972;-69
2021/01/03 09:33:15;;;;;;;3.55;2.58;;;-2.80;99.90;;;;;;4969904;28;20224;-69
2021/01/03 09:36:07;;;;;;;5.78;2.70;;;-2.80;99.90;;;;;;4974384;28;20195;-69
2021/01/03 09:38:38;;;;;;;10.43;5.50;;;-2.80;99.90;;;;;;4976136;28;20346;-69
2021/01/03 09:41:32;;;;;;;8.70;4.78;;;-2.80;99.90;;;;;;4973917;28;20215;-69
2021/01/03 09:44:25;;;;;;;12.63;6.38;;;-2.80;99.90;;;;;;4970803;28;20560;-69
2021/01/03 09:47:10;;;;;;;36.25;12.68;;;-2.80;99.90;;;;;;4977496;28;20219;-69
2021/01/03 09:49:36;;;;;;;27.77;11.20;;;-2.80;99.90;;;;;;4968691;28;20204;-69
2021/01/03 09:52:34;;;;;;;21.35;9.80;;;-2.70;99.90;;;;;;4966696;28;20211;-69
2021/01/03 09:55:02;;;;;;;10.45;5.53;;;-2.70;99.90;;;;;;4972932;28;20196;-69
2021/01/03 09:57:38;;;;;;;8.77;5.40;;;-2.60;99.90;;;;;;4972848;28;20203;-69
2021/01/03 10:00:08;;;;;;;6.15;3.88;;;-2.50;99.90;;;;;;4971598;28;20203;-70
2021/01/03 10:02:33;;;;;;;5.07;2.55;;;-2.40;99.90;;;;;;4974299;28;20295;-69
2021/01/03 10:04:59;;;;;;;7.15;3.47;;;-2.30;99.90;;;;;;4966837;28;20246;-69
2021/01/03 10:07:28;;;;;;;7.15;5.35;;;-2.20;99.90;;;;;;4976611;28;20237;-69
2021/01/03 10:09:58;;;;;;;4.70;2.95;;;-2.20;99.90;;;;;;4973242;28;20199;-69
2021/01/03 10:12:26;;;;;;;8.75;3.83;;;-2.30;99.90;;;;;;4973430;28;20321;-69
2021/01/03 10:15:10;;;;;;;11.40;4.93;;;-2.20;99.90;;;;;;4976371;28;20211;-69
2021/01/03 10:17:38;;;;;;;7.22;3.35;;;-2.30;99.90;;;;;;4972406;28;20277;-69
2021/01/03 10:20:16;;;;;;;7.93;3.10;;;-2.20;99.90;;;;;;4975657;28;20219;-69
2021/01/03 10:22:44;;;;;;;4.30;2.35;;;-2.30;99.90;;;;;;4972429;28;20207;-69
2021/01/03 10:25:13;;;;;;;3.63;2.08;;;-2.20;99.90;;;;;;4976624;28;20333;-69
2021/01/03 10:27:39;;;;;;;2.30;1.85;;;-2.20;99.90;;;;;;4975407;28;20203;-70
2021/01/03 10:30:08;;;;;;;3.20;1.70;;;-2.10;99.90;;;;;;4970593;28;20262;-69
2021/01/03 10:32:37;;;;;;;2.13;1.63;;;-2.00;99.90;;;;;;4974621;28;20344;-69
2021/01/03 10:35:07;;;;;;;2.00;1.73;;;-2.00;99.90;;;;;;4972100;28;20701;-68
2021/01/03 10:37:32;;;;;;;4.07;1.50;;;-1.90;99.90;;;;;;4964969;28;20216;-69
2021/01/03 10:39:58;;;;;;;8.05;2.38;;;-1.90;99.90;;;;;;4971347;28;20207;-69
2021/01/03 10:42:23;;;;;;;3.40;1.83;;;-1.90;99.90;;;;;;4972908;28;20200;-69
2021/01/03 10:44:49;;;;;;;3.85;2.15;;;-1.70;99.90;;;;;;4972588;28;20207;-69
2021/01/03 10:47:15;;;;;;;2.08;1.60;;;-1.70;99.90;;;;;;4967795;28;20204;-69
2021/01/03 10:49:41;;;;;;;2.70;2.03;;;-1.80;99.90;;;;;;4969844;28;20299;-69
2021/01/03 10:52:06;;;;;;;4.35;2.78;;;-1.60;99.90;;;;;;4970219;28;20212;-69
2021/01/03 10:54:33;;;;;;;3.33;1.90;;;-1.70;99.90;;;;;;4972956;28;20218;-69
2021/01/03 10:56:59;;;;;;;2.20;1.67;;;-1.70;99.90;;;;;;4972053;28;20493;-69
2021/01/03 10:59:25;;;;;;;2.03;1.65;;;-1.70;99.90;;;;;;4974864;28;20208;-69
2021/01/03 11:01:51;;;;;;;10.65;4.07;;;-1.70;99.90;;;;;;4974751;28;20204;-70
2021/01/03 11:04:19;;;;;;;1.90;1.65;;;-1.70;99.90;;;;;;4971436;28;20335;-69
2021/01/03 11:06:48;;;;;;;1.80;1.52;;;-1.70;99.90;;;;;;4974332;28;20203;-69
2021/01/03 11:09:26;;;;;;;4.20;1.80;;;-1.80;99.90;;;;;;4973364;28;20562;-69
2021/01/03 11:11:58;;;;;;;1.67;1.58;;;-1.80;99.90;;;;;;4973179;28;20658;-68
2021/01/03 11:14:23;;;;;;;2.22;1.70;;;-1.80;99.90;;;;;;4973448;28;20214;-69
2021/01/03 11:16:49;;;;;;;72.72;29.35;;;-1.90;99.90;;;;;;4978434;28;20951;-69
2021/01/03 11:19:16;;;;;;;7.70;4.45;;;-1.80;99.90;;;;;;4970286;28;20208;-70
2021/01/03 11:21:43;;;;;;;13.68;6.80;;;-1.70;99.90;;;;;;4974920;28;20203;-69
2021/01/03 11:24:11;;;;;;;2.63;1.90;;;-1.70;99.90;;;;;;4974075;28;20229;-69
2021/01/03 11:26:41;;;;;;;2.28;1.60;;;-1.70;99.90;;;;;;4977451;28;20200;-68
2021/01/03 11:29:13;;;;;;;3.13;2.08;;;-1.70;99.90;;;;;;4975857;28;20310;-69
2021/01/03 11:31:47;;;;;;;4.15;3.45;;;-1.70;99.90;;;;;;4975767;28;20773;-69
2021/01/03 11:34:16;;;;;;;4.10;2.97;;;-1.70;99.90;;;;;;4976008;28;20231;-69
2021/01/03 11:36:48;;;;;;;2.03;1.50;;;-1.70;99.90;;;;;;4975899;28;20230;-69
2021/01/03 11:39:14;;;;;;;1.60;1.42;;;-1.70;99.90;;;;;;4974586;28;20231;-69
2021/01/03 11:41:40;;;;;;;2.80;2.03;;;-1.70;99.90;;;;;;4974100;28;20238;-70
2021/01/03 11:44:06;;;;;;;4.82;3.00;;;-1.80;99.90;;;;;;4973238;28;20196;-68
2021/01/03 11:46:32;;;;;;;3.75;2.70;;;-1.70;99.90;;;;;;4975540;28;20203;-70
2021/01/03 11:48:58;;;;;;;3.22;1.65;;;-1.70;99.90;;;;;;4970780;28;20284;-69
2021/01/03 11:51:24;;;;;;;5.05;3.22;;;-1.70;99.90;;;;;;4975774;28;20202;-68
2021/01/03 11:53:50;;;;;;;3.03;2.40;;;-1.70;99.90;;;;;;4974911;28;20206;-70
2021/01/03 11:56:20;;;;;;;2.67;1.63;;;-1.70;99.90;;;;;;4972617;28;20208;-69
2021/01/03 11:58:46;;;;;;;6.93;4.43;;;-1.70;99.90;;;;;;4975598;28;20214;-70
2021/01/03 12:01:16;;;;;;;16.08;9.82;;;-1.70;99.90;;;;;;4973100;28;20235;-69
2021/01/03 12:03:42;;;;;;;5.15;2.80;;;-1.70;99.90;;;;;;4976141;28;20224;-70
2021/01/03 12:06:08;;;;;;;3.35;2.28;;;-1.70;99.90;;;;;;4975471;28;20206;-69
2021/01/03 12:08:33;;;;;;;2.83;2.00;;;-1.70;99.90;;;;;;4973598;28;20286;-68
2021/01/03 12:10:59;;;;;;;8.60;4.18;;;-1.70;99.90;;;;;;4965990;28;20210;-69
2021/01/03 12:13:25;;;;;;;4.57;2.63;;;-1.60;99.90;;;;;;4975532;28;20199;-69
2021/01/03 12:15:50;;;;;;;8.15;4.57;;;-1.50;99.90;;;;;;4970173;28;20278;-69
2021/01/03 12:18:16;;;;;;;3.75;2.22;;;-1.50;99.90;;;;;;4972517;28;20538;-69
2021/01/03 12:20:42;;;;;;;6.68;3.50;;;-1.50;99.90;;;;;;4968754;28;20530;-69
2021/01/03 12:23:07;;;;;;;6.72;4.03;;;-1.50;99.90;;;;;;4976886;28;20192;-69
2021/01/03 12:25:33;;;;;;;10.55;5.50;;;-1.60;99.90;;;;;;4979520;28;20246;-70
2021/01/03 12:27:59;;;;;;;2.72;2.08;;;-1.70;99.90;;;;;;4977947;28;20206;-69
2021/01/03 12:30:25;;;;;;;3.28;2.03;;;-1.70;99.90;;;;;;4977087;28;20196;-69
2021/01/03 12:32:50;;;;;;;3.97;2.30;;;-1.70;99.90;;;;;;4977714;28;20226;-70
2021/01/03 12:35:16;;;;;;;7.13;4.50;;;-1.80;99.90;;;;;;4974936;28;20208;-70
2021/01/03 12:37:42;;;;;;;14.88;7.13;;;-1.70;99.90;;;;;;4975539;28;20199;-69
2021/01/03 12:40:10;;;;;;;6.43;3.53;;;-1.70;99.90;;;;;;4973799;28;20318;-69
2021/01/03 12:42:37;;;;;;;4.13;1.83;;;-1.80;99.90;;;;;;4974931;28;20940;-69
2021/01/03 12:45:05;;;;;;;2.97;2.00;;;-1.80;99.90;;;;;;4971344;28;20195;-68
2021/01/03 12:47:32;;;;;;;3.60;2.10;;;-1.80;99.90;;;;;;4976706;28;20214;-69
2021/01/03 12:49:58;;;;;;;5.03;3.30;;;-1.90;99.90;;;;;;4975812;28;20598;-69
2021/01/03 12:52:24;;;;;;;4.80;3.00;;;-1.90;99.90;;;;;;4976324;28;20219;-70
2021/01/03 12:54:49;;;;;;;2.47;1.75;;;-1.90;99.90;;;;;;4975790;28;20227;-69
2021/01/03 12:57:15;;;;;;;2.78;1.92;;;-1.90;99.90;;;;;;4977518;28;20342;-69
2021/01/03 12:59:41;;;;;;;1.98;1.73;;;-1.90;99.90;;;;;;4979445;28;20230;-69
2021/01/03 13:02:07;;;;;;;3.88;2.10;;;-2.00;99.90;;;;;;4978159;28;20199;-69
2021/01/03 13:04:33;;;;;;;6.32;3.88;;;-2.00;99.90;;;;;;4980621;28;20232;-69
2021/01/03 13:06:59;;;;;;;4.35;2.63;;;-2.10;99.90;;;;;;4981125;28;20577;-69
2021/01/03 13:09:25;;;;;;;2.45;1.70;;;-2.10;99.90;;;;;;4977491;28;20912;-68
2021/01/03 13:11:51;;;;;;;5.18;2.25;;;-2.10;99.90;;;;;;4981560;28;20867;-69